Time;durP1;ratioP1;P1;durP2;ratioP2;P2;SDS_P1;SDS_P2;PMS_P1;PMS_P2;Temp;Humidity;BMP_temperature;BMP_pressure;BME280_temperature;BME280_humidity;BME280_pressure;Samples;Min_cycle;Max_cycle;Signal;HPM_P1;HPM_P2
2021/07/30 00:01:21;;;;;;;4.38;3.90;;;;;;;17.19;62.86;98552.31;3567774;40;20049;-68
2021/07/30 00:03:49;;;;;;;5.90;3.78;;;;;;;17.20;62.39;98556.59;3567560;40;20042;-68
2021/07/30 00:06:27;;;;;;;5.07;4.25;;;;;;;17.16;62.28;98550.13;3568789;40;20089;-68
2021/07/30 00:08:54;;;;;;;7.03;3.35;;;;;;;17.14;62.24;98553.00;3567447;40;20131;-68
2021/07/30 00:11:23;;;;;;;4.68;3.53;;;;;;;17.11;62.15;98555.38;3567389;40;20053;-68
2021/07/30 00:13:51;;;;;;;10.02;3.83;;;;;;;17.08;62.32;98553.97;3568442;40;20045;-68
2021/07/30 00:16:19;;;;;;;6.35;3.63;;;;;;;17.03;62.41;98548.56;3569924;40;20048;-68
2021/07/30 00:18:47;;;;;;;4.55;3.20;;;;;;;16.96;62.38;98542.56;3568694;40;20391;-68
2021/07/30 00:21:14;;;;;;;5.95;3.75;;;;;;;16.84;62.73;98554.09;3569219;40;20038;-69
2021/07/30 00:23:42;;;;;;;4.53;3.60;;;;;;;16.71;63.39;98557.03;3570237;40;20089;-68
2021/07/30 00:26:10;;;;;;;5.93;3.42;;;;;;;16.68;63.69;98548.69;3569757;40;20076;-68
2021/07/30 00:28:39;;;;;;;4.53;3.13;;;;;;;16.63;63.59;98546.72;3569985;40;20089;-68
2021/07/30 00:31:07;;;;;;;4.43;3.45;;;;;;;16.62;64.04;98552.31;3571092;40;20492;-69
2021/07/30 00:33:35;;;;;;;6.50;3.88;;;;;;;16.63;63.66;98553.94;3570011;40;20049;-68
2021/07/30 00:36:03;;;;;;;5.20;3.42;;;;;;;16.50;64.01;98549.69;3570027;40;20069;-68
2021/07/30 00:38:31;;;;;;;5.90;3.97;;;;;;;16.52;64.05;98551.03;3569715;40;20065;-68
2021/07/30 00:41:00;;;;;;;5.72;3.80;;;;;;;16.42;64.52;98542.06;3570002;40;20355;-68
2021/07/30 00:43:28;;;;;;;3.85;3.17;;;;;;;16.41;64.32;98543.06;3569184;40;20311;-68
2021/07/30 00:45:59;;;;;;;3.58;3.28;;;;;;;16.45;64.11;98546.88;3569914;40;20033;-68
2021/07/30 00:48:30;;;;;;;5.82;3.30;;;;;;;16.41;63.90;98540.41;3570123;40;20049;-68
2021/07/30 00:50:58;;;;;;;4.70;3.63;;;;;;;16.38;64.00;98535.56;3569902;40;20347;-69
2021/07/30 00:53:26;;;;;;;4.38;3.33;;;;;;;16.34;63.93;98533.38;3569914;40;20049;-68
2021/07/30 00:55:57;;;;;;;5.20;3.45;;;;;;;16.39;64.20;98537.19;3570220;40;20053;-68
2021/07/30 00:58:26;;;;;;;6.93;3.60;;;;;;;16.44;64.20;98538.09;3568721;40;20318;-68
2021/07/30 01:00:55;;;;;;;7.25;3.83;;;;;;;16.45;64.04;98538.88;3569979;40;20030;-68
2021/07/30 01:03:24;;;;;;;8.60;3.45;;;;;;;16.44;64.12;98537.28;3569757;40;20053;-68
2021/07/30 01:05:53;;;;;;;3.42;2.95;;;;;;;16.44;64.12;98534.59;3570175;40;20328;-68
2021/07/30 01:08:21;;;;;;;4.07;2.95;;;;;;;16.44;64.35;98532.75;3568810;40;20032;-68
2021/07/30 01:10:50;;;;;;;7.25;3.83;;;;;;;16.41;64.64;98527.91;3569687;40;20417;-68
2021/07/30 01:13:18;;;;;;;4.93;3.85;;;;;;;16.41;64.68;98532.41;3568974;40;20056;-68
2021/07/30 01:15:46;;;;;;;5.03;3.50;;;;;;;16.36;64.57;98533.13;3568861;40;20030;-68
2021/07/30 01:18:14;;;;;;;4.90;3.42;;;;;;;16.40;64.73;98536.13;3569262;40;20049;-68
2021/07/30 01:20:45;;;;;;;4.22;3.30;;;;;;;16.47;64.76;98536.81;3569468;40;20310;-68
2021/07/30 01:23:14;;;;;;;4.10;3.22;;;;;;;16.47;64.65;98539.47;3569734;40;20029;-68
2021/07/30 01:25:42;;;;;;;4.82;3.30;;;;;;;16.41;64.31;98527.91;3569231;40;20049;-68
2021/07/30 01:28:10;;;;;;;6.93;3.88;;;;;;;16.32;64.23;98532.78;3569736;40;20078;-68
2021/07/30 01:30:37;;;;;;;4.50;3.30;;;;;;;16.25;64.15;98536.66;3569704;40;20075;-68
2021/07/30 01:33:05;;;;;;;5.07;3.80;;;;;;;16.15;64.85;98534.56;3569606;40;20338;-68
2021/07/30 01:35:33;;;;;;;8.70;3.45;;;;;;;16.10;65.34;98535.28;3569717;40;20052;-68
2021/07/30 01:38:00;;;;;;;5.43;3.67;;;;;;;16.18;64.97;98533.28;3569355;40;20033;-68
2021/07/30 01:40:30;;;;;;;5.13;3.83;;;;;;;16.20;64.91;98534.66;3569870;40;20085;-68
2021/07/30 01:42:57;;;;;;;5.75;3.30;;;;;;;16.20;64.96;98523.19;3569522;40;20073;-68
2021/07/30 01:45:25;;;;;;;5.53;3.33;;;;;;;16.19;64.61;98533.03;3569835;40;20057;-68
2021/07/30 01:47:53;;;;;;;4.40;3.65;;;;;;;16.21;64.63;98528.31;3569631;40;20348;-68
2021/07/30 01:50:20;;;;;;;5.18;3.33;;;;;;;16.22;64.69;98526.44;3569440;40;20146;-68
2021/07/30 01:52:48;;;;;;;5.05;3.40;;;;;;;16.24;64.94;98524.34;3569177;40;20052;-68
2021/07/30 01:55:16;;;;;;;5.65;3.50;;;;;;;16.23;64.34;98523.53;3568649;40;20036;-68
2021/07/30 01:57:45;;;;;;;8.93;3.58;;;;;;;16.13;64.41;98526.00;3571746;40;20069;-68
2021/07/30 02:00:13;;;;;;;8.20;3.90;;;;;;;16.08;65.13;98526.72;3572544;40;20037;-68
2021/07/30 02:02:41;;;;;;;5.60;3.30;;;;;;;16.05;65.08;98521.84;3570744;40;20041;-68
2021/07/30 02:05:10;;;;;;;4.85;3.35;;;;;;;16.02;65.42;98524.97;3568411;40;20053;-68
2021/07/30 02:07:38;;;;;;;5.68;3.42;;;;;;;16.03;65.37;98528.44;3568709;40;20045;-68
2021/07/30 02:10:07;;;;;;;4.70;3.80;;;;;;;16.00;65.14;98527.06;3568588;40;20045;-68
2021/07/30 02:14:14;;;;;;;4.43;3.65;;;;;;;15.97;65.63;98526.72;3569533;40;20030;-68
2021/07/30 02:15:24;;;;;;;4.88;3.47;;;;;;;15.89;65.42;98525.22;3569442;40;20045;-68
2021/07/30 02:17:51;;;;;;;5.85;3.65;;;;;;;15.87;65.49;98521.97;3568348;40;20113;-69
2021/07/30 02:20:19;;;;;;;4.55;3.13;;;;;;;15.87;65.96;98526.50;3568763;40;20085;-68
2021/07/30 02:22:47;;;;;;;4.93;3.50;;;;;;;15.88;65.29;98525.44;3569795;40;20414;-68
2021/07/30 02:25:15;;;;;;;9.25;3.50;;;;;;;15.86;65.64;98523.03;3568523;40;20340;-68
2021/07/30 02:27:42;;;;;;;4.07;3.30;;;;;;;15.84;66.06;98522.44;3569305;40;20139;-68
2021/07/30 02:30:11;;;;;;;5.55;3.60;;;;;;;15.87;66.02;98521.16;3569572;40;20049;-68
2021/07/30 02:32:41;;;;;;;3.72;3.15;;;;;;;15.88;65.91;98520.94;3569250;40;20057;-68
2021/07/30 02:35:09;;;;;;;5.88;3.08;;;;;;;15.91;66.13;98522.31;3568600;40;20073;-68
2021/07/30 02:37:36;;;;;;;5.13;3.55;;;;;;;15.89;65.89;98516.41;3569369;40;20060;-68
2021/07/30 02:40:06;;;;;;;6.55;3.22;;;;;;;15.84;65.96;98517.94;3569453;40;20061;-68
2021/07/30 02:42:34;;;;;;;5.25;3.60;;;;;;;15.84;65.96;98519.78;3569555;40;20038;-68
2021/07/30 02:45:02;;;;;;;4.28;3.88;;;;;;;15.85;66.17;98513.41;3569040;40;20034;-68
2021/07/30 02:47:30;;;;;;;5.80;3.88;;;;;;;15.79;66.50;98525.78;3568965;40;20049;-68
2021/07/30 02:49:59;;;;;;;4.93;3.40;;;;;;;15.73;67.29;98515.28;3568198;40;20037;-68
2021/07/30 02:52:27;;;;;;;5.63;3.72;;;;;;;15.74;67.30;98517.69;3569532;40;20040;-68
2021/07/30 02:54:55;;;;;;;4.93;3.58;;;;;;;15.78;67.29;98515.38;3568383;40;20069;-68
2021/07/30 02:57:26;;;;;;;4.90;3.47;;;;;;;15.73;67.37;98507.28;3569387;40;20074;-68
2021/07/30 02:59:54;;;;;;;4.65;3.78;;;;;;;15.82;67.17;98509.34;3568625;40;20059;-68
2021/07/30 03:02:22;;;;;;;4.32;3.92;;;;;;;15.84;67.04;98503.78;3567895;40;20379;-68
2021/07/30 03:04:49;;;;;;;7.95;3.58;;;;;;;15.92;67.33;98500.78;3569399;40;20061;-68
2021/07/30 03:07:18;;;;;;;5.85;3.72;;;;;;;16.00;67.30;98502.25;3569186;40;20053;-68
2021/07/30 03:09:46;;;;;;;5.28;3.30;;;;;;;15.98;67.25;98491.81;3569055;40;20052;-68
2021/07/30 03:12:14;;;;;;;4.28;3.33;;;;;;;16.03;67.00;98501.78;3569046;40;20052;-68
2021/07/30 03:14:42;;;;;;;4.20;3.60;;;;;;;15.96;66.96;98490.44;3568869;40;20026;-68
2021/07/30 03:17:09;;;;;;;6.00;3.60;;;;;;;15.91;67.28;98490.31;3568182;40;20085;-68
2021/07/30 03:19:37;;;;;;;4.90;3.25;;;;;;;15.82;67.08;98484.56;3568144;40;20052;-68
2021/07/30 03:22:06;;;;;;;4.00;3.63;;;;;;;15.74;67.78;98487.56;3569055;40;20395;-68
2021/07/30 03:24:35;;;;;;;6.30;3.80;;;;;;;15.61;68.05;98484.06;3569127;40;20088;-68
2021/07/30 03:27:03;;;;;;;7.95;3.70;;;;;;;15.60;68.06;98482.47;3567964;40;20077;-68
2021/07/30 03:29:31;;;;;;;7.82;3.65;;;;;;;15.66;68.16;98479.94;3568904;40;20053;-68
2021/07/30 03:31:59;;;;;;;9.25;3.75;;;;;;;15.64;67.89;98482.81;3572553;40;20442;-68
2021/07/30 03:34:27;;;;;;;6.57;3.47;;;;;;;15.61;68.69;98481.41;3572398;40;20111;-68
2021/07/30 03:36:55;;;;;;;6.50;4.18;;;;;;;15.62;68.21;98479.56;3572358;40;20053;-68
2021/07/30 03:39:23;;;;;;;6.95;4.28;;;;;;;15.64;68.08;98471.34;3572994;40;20037;-69
2021/07/30 03:41:52;;;;;;;5.63;3.80;;;;;;;15.58;68.39;98476.53;3573853;40;20069;-68
2021/07/30 03:44:20;;;;;;;7.80;4.20;;;;;;;15.62;67.93;98482.22;3574285;40;20041;-68
2021/07/30 03:46:48;;;;;;;8.50;4.40;;;;;;;15.65;68.11;98479.13;3573956;40;20120;-68
2021/07/30 03:49:15;;;;;;;5.90;3.65;;;;;;;15.60;67.97;98477.13;3572412;40;20049;-68
2021/07/30 03:51:43;;;;;;;4.55;3.80;;;;;;;15.57;68.35;98484.78;3572919;40;20062;-68
2021/07/30 03:54:11;;;;;;;6.03;4.07;;;;;;;15.53;68.26;98487.09;3573157;40;20050;-68
2021/07/30 03:56:41;;;;;;;8.05;4.28;;;;;;;15.50;68.54;98484.06;3572496;40;20081;-68
2021/07/30 03:59:10;;;;;;;5.53;3.55;;;;;;;15.51;68.41;98488.34;3571690;40;20280;-68
2021/07/30 04:01:46;;;;;;;9.32;6.30;;;;;;;15.46;67.99;98483.72;3571208;40;20056;-68
2021/07/30 04:04:15;;;;;;;7.03;4.22;;;;;;;15.38;68.51;98493.91;3572770;40;20050;-68
2021/07/30 04:06:44;;;;;;;7.70;4.32;;;;;;;15.39;68.50;98479.56;3572026;40;20511;-68
2021/07/30 04:09:12;;;;;;;8.65;4.50;;;;;;;15.43;68.51;98486.03;3572636;40;20091;-69
2021/07/30 04:11:40;;;;;;;6.32;4.00;;;;;;;15.46;68.43;98491.72;3571029;40;20395;-68
2021/07/30 04:14:08;;;;;;;8.48;4.57;;;;;;;15.45;68.18;98483.97;3569002;40;20053;-68
2021/07/30 04:16:38;;;;;;;5.15;4.15;;;;;;;15.46;68.06;98481.06;3568272;40;20030;-68
2021/07/30 04:19:07;;;;;;;9.60;5.90;;;;;;;15.40;68.07;98486.53;3567764;40;20022;-68
2021/07/30 04:21:37;;;;;;;11.65;4.63;;;;;;;15.17;68.76;98485.44;3568066;40;20092;-66
2021/07/30 04:24:06;;;;;;;7.93;5.43;;;;;;;15.24;69.30;98480.84;3568084;40;20383;-66
2021/07/30 04:26:34;;;;;;;8.10;6.03;;;;;;;15.30;69.16;98484.41;3568145;40;20033;-66
2021/07/30 04:29:01;;;;;;;5.80;4.68;;;;;;;15.29;68.79;98480.94;3567676;40;20053;-66
2021/07/30 04:31:29;;;;;;;4.65;4.22;;;;;;;15.24;69.26;98483.50;3568137;40;20331;-67
2021/07/30 04:33:58;;;;;;;11.73;5.38;;;;;;;15.40;69.15;98486.53;3568138;40;20053;-67
2021/07/30 04:36:26;;;;;;;17.48;9.27;;;;;;;15.41;68.51;98480.94;3571256;40;20085;-67
2021/07/30 04:38:54;;;;;;;5.93;4.55;;;;;;;15.38;68.85;98484.06;3571813;40;20046;-67
2021/07/30 04:41:22;;;;;;;4.57;4.18;;;;;;;15.32;69.05;98490.34;3571674;40;20045;-67
2021/07/30 04:43:49;;;;;;;5.70;4.03;;;;;;;15.23;69.45;98492.53;3571335;40;20042;-67
2021/07/30 04:46:18;;;;;;;9.40;4.60;;;;;;;15.26;69.17;98496.56;3571220;40;20052;-67
2021/07/30 04:48:46;;;;;;;5.47;4.40;;;;;;;15.26;69.23;98491.25;3571058;40;20407;-67
2021/07/30 04:51:15;;;;;;;7.72;4.43;;;;;;;15.21;69.44;98483.94;3569243;40;20049;-67
2021/07/30 04:53:43;;;;;;;6.25;4.68;;;;;;;15.27;69.90;98492.88;3568219;40;20037;-67
2021/07/30 04:56:17;;;;;;;5.45;4.10;;;;;;;15.39;69.35;98498.19;3568445;40;20029;-68
2021/07/30 04:58:50;;;;;;;7.20;4.50;;;;;;;15.55;68.79;98492.16;3568070;40;20049;-67
2021/07/30 05:01:17;;;;;;;6.82;4.00;;;;;;;15.58;68.95;98486.38;3568555;40;20041;-68
2021/07/30 05:03:46;;;;;;;5.50;4.20;;;;;;;15.61;68.52;98489.41;3569878;40;20054;-68
2021/07/30 05:06:16;;;;;;;5.10;4.60;;;;;;;15.68;68.09;98480.53;3569683;40;20068;-67
2021/07/30 05:08:44;;;;;;;6.70;3.83;;;;;;;15.66;68.05;98480.75;3569412;40;20049;-68
2021/07/30 05:11:13;;;;;;;7.10;4.28;;;;;;;15.69;68.13;98480.28;3569605;40;20049;-67
2021/07/30 05:13:42;;;;;;;5.97;3.88;;;;;;;15.73;68.07;98480.63;3569566;40;20046;-67
2021/07/30 05:16:11;;;;;;;10.35;4.32;;;;;;;15.79;68.03;98475.16;3569990;40;20466;-67
2021/07/30 05:18:39;;;;;;;4.95;3.90;;;;;;;15.86;68.13;98477.69;3569674;40;20053;-67
2021/07/30 05:21:07;;;;;;;5.57;4.72;;;;;;;15.99;67.75;98484.63;3568946;40;20026;-67
2021/07/30 05:23:36;;;;;;;9.60;3.90;;;;;;;16.03;66.83;98475.13;3568714;40;20049;-67
2021/07/30 05:26:04;;;;;;;7.20;4.32;;;;;;;16.07;66.95;98471.75;3569685;40;20391;-67
2021/07/30 05:28:34;;;;;;;5.70;4.38;;;;;;;16.06;66.59;98466.66;3569559;40;20076;-67
2021/07/30 05:31:02;;;;;;;7.45;4.22;;;;;;;16.10;66.42;98473.13;3569448;40;20029;-67
2021/07/30 05:33:30;;;;;;;5.78;4.38;;;;;;;16.14;66.40;98468.16;3569828;40;20052;-67
2021/07/30 05:35:58;;;;;;;6.18;4.95;;;;;;;16.12;66.36;98468.38;3568894;40;20053;-67
2021/07/30 05:38:26;;;;;;;6.72;3.95;;;;;;;16.15;65.83;98465.22;3569492;40;20052;-67
2021/07/30 05:40:55;;;;;;;7.90;4.15;;;;;;;16.26;66.23;98463.59;3569171;40;20061;-67
2021/07/30 05:43:23;;;;;;;5.20;4.30;;;;;;;16.27;65.68;98468.66;3568548;40;20045;-67
2021/07/30 05:45:52;;;;;;;7.85;3.88;;;;;;;16.30;66.01;98462.06;3569309;40;20053;-68
2021/07/30 05:48:19;;;;;;;7.22;4.40;;;;;;;16.38;65.45;98447.53;3568911;40;20056;-68
2021/07/30 05:50:49;;;;;;;5.45;4.25;;;;;;;16.48;65.20;98451.19;3569588;40;20056;-68
2021/07/30 05:53:16;;;;;;;6.38;4.30;;;;;;;16.45;64.89;98461.53;3569781;40;20096;-69
2021/07/30 05:55:44;;;;;;;4.20;3.80;;;;;;;16.49;64.69;98455.50;3568459;40;20292;-69
2021/07/30 05:58:13;;;;;;;6.80;3.70;;;;;;;16.57;64.76;98454.28;3568112;40;20444;-68
2021/07/30 06:00:41;;;;;;;8.30;4.30;;;;;;;16.70;64.40;98459.34;3569440;40;20135;-68
2021/07/30 06:03:09;;;;;;;5.70;4.35;;;;;;;16.81;63.88;98460.31;3569248;40;20394;-68
2021/07/30 06:05:37;;;;;;;9.70;4.13;;;;;;;16.97;64.21;98454.19;3569168;40;20399;-66
2021/07/30 06:08:05;;;;;;;5.68;3.70;;;;;;;17.07;63.37;98459.72;3568966;40;20062;-68
2021/07/30 06:10:34;;;;;;;4.78;4.20;;;;;;;17.23;63.45;98457.28;3569177;40;20089;-68
2021/07/30 06:13:01;;;;;;;8.80;4.35;;;;;;;17.38;63.06;98457.50;3567926;40;20073;-69
2021/07/30 06:15:30;;;;;;;7.35;4.00;;;;;;;17.43;62.42;98444.22;3569221;40;20057;-69
2021/07/30 06:18:01;;;;;;;6.32;4.60;;;;;;;17.49;61.74;98459.28;3569093;40;20041;-69
2021/07/30 06:20:30;;;;;;;9.98;5.30;;;;;;;17.59;61.66;98447.91;3569651;40;20033;-67
2021/07/30 06:22:58;;;;;;;7.97;3.97;;;;;;;17.66;61.36;98442.38;3568525;40;20446;-67
2021/07/30 06:25:26;;;;;;;5.53;3.47;;;;;;;17.64;61.56;98439.97;3569112;40;20060;-67
2021/07/30 06:27:53;;;;;;;4.97;3.78;;;;;;;17.79;60.84;98434.03;3568241;40;20048;-68
2021/07/30 06:30:21;;;;;;;7.38;3.65;;;;;;;17.84;61.02;98439.47;3568924;40;20064;-67
2021/07/30 06:32:50;;;;;;;4.80;3.42;;;;;;;17.89;61.09;98444.06;3569012;40;20049;-67
2021/07/30 06:35:20;;;;;;;5.13;3.63;;;;;;;17.98;60.32;98446.03;3569080;40;20093;-67
2021/07/30 06:37:48;;;;;;;6.15;3.28;;;;;;;18.02;60.43;98441.00;3569041;40;20084;-67
2021/07/30 06:40:16;;;;;;;4.55;4.00;;;;;;;18.09;60.20;98438.97;3568204;40;20073;-67
2021/07/30 06:42:44;;;;;;;6.85;3.63;;;;;;;18.10;60.00;98437.88;3628235;22;20117;-72
2021/07/30 06:45:12;;;;;;;8.25;3.33;;;;;;;18.17;60.30;98433.16;3593425;40;20036;-72
2021/07/30 06:47:39;;;;;;;3.95;3.40;;;;;;;18.26;60.16;98428.16;3593404;40;20297;-72
2021/07/30 06:50:09;;;;;;;8.18;3.85;;;;;;;18.39;59.64;98433.13;3592531;40;20020;-72
2021/07/30 06:52:37;;;;;;;5.13;3.95;;;;;;;18.58;59.53;98432.78;3592954;40;20032;-72
2021/07/30 06:55:06;;;;;;;4.63;3.30;;;;;;;18.71;58.18;98438.56;3593301;40;20297;-71
2021/07/30 06:57:34;;;;;;;5.88;4.30;;;;;;;18.76;58.49;98435.09;3593938;40;20285;-73
2021/07/30 07:00:02;;;;;;;6.10;3.33;;;;;;;18.85;58.50;98433.56;3593232;40;20308;-72
2021/07/30 07:02:29;;;;;;;6.20;3.63;;;;;;;19.00;57.63;98430.22;3592805;40;20032;-72
2021/07/30 07:04:58;;;;;;;8.07;4.05;;;;;;;19.03;57.25;98432.41;3592357;40;20047;-73
2021/07/30 07:07:27;;;;;;;6.25;3.67;;;;;;;19.09;57.80;98436.72;3592174;40;20063;-73
2021/07/30 07:09:55;;;;;;;5.45;4.47;;;;;;;19.25;57.51;98432.28;3592489;40;20448;-72
2021/07/30 07:12:23;;;;;;;7.03;3.85;;;;;;;19.36;57.28;98425.91;3593397;40;20325;-71
2021/07/30 07:14:51;;;;;;;7.57;4.40;;;;;;;19.46;57.17;98425.16;3592389;40;20044;-72
2021/07/30 07:17:20;;;;;;;6.55;3.92;;;;;;;19.58;56.53;98427.66;3590658;40;20033;-71
2021/07/30 07:19:47;;;;;;;6.90;4.30;;;;;;;19.66;55.97;98422.63;3590263;40;20087;-70
2021/07/30 07:22:15;;;;;;;9.15;4.10;;;;;;;19.75;56.02;98420.25;3590115;40;20064;-71
2021/07/30 07:24:44;;;;;;;8.38;3.95;;;;;;;19.93;55.68;98422.50;3590433;40;20051;-71
2021/07/30 07:27:12;;;;;;;6.68;3.45;;;;;;;20.05;55.49;98414.22;3590333;40;20055;-71
2021/07/30 07:29:41;;;;;;;6.05;5.07;;;;;;;20.25;54.88;98413.47;3589086;40;20055;-69
2021/07/30 07:32:09;;;;;;;5.05;3.47;;;;;;;20.38;54.63;98409.47;3591597;40;20381;-71
2021/07/30 07:34:36;;;;;;;5.72;3.05;;;;;;;20.44;54.77;98413.75;3590933;40;20052;-71
2021/07/30 07:37:04;;;;;;;6.57;3.90;;;;;;;20.50;53.67;98415.44;3591485;40;20052;-71
2021/07/30 07:39:32;;;;;;;4.15;2.80;;;;;;;20.61;52.57;98405.47;3592394;40;20051;-70
2021/07/30 07:42:02;;;;;;;4.47;2.95;;;;;;;20.72;51.93;98409.78;3590639;40;20052;-70
2021/07/30 07:44:30;;;;;;;4.35;3.03;;;;;;;20.82;51.56;98399.06;3591816;40;20137;-69
2021/07/30 07:46:58;;;;;;;5.00;2.97;;;;;;;20.93;50.94;98405.22;3592056;40;20057;-71
2021/07/30 07:49:26;;;;;;;6.05;2.70;;;;;;;21.01;50.62;98402.00;3591510;40;20044;-70
2021/07/30 07:51:55;;;;;;;2.90;2.63;;;;;;;21.07;50.05;98400.94;3591682;40;20440;-70
2021/07/30 07:54:43;;;;;;;2.95;2.65;;;;;;;21.19;50.36;98398.75;3591778;40;20056;-70
2021/07/30 07:57:12;;;;;;;7.22;3.20;;;;;;;21.32;50.31;98401.97;3590739;40;20052;-71
2021/07/30 07:59:41;;;;;;;7.63;3.13;;;;;;;21.41;49.90;98400.34;3591715;40;20341;-71
2021/07/30 08:02:09;;;;;;;3.53;3.22;;;;;;;21.47;49.33;98400.09;3591588;40;20045;-71
2021/07/30 08:04:37;;;;;;;2.85;2.60;;;;;;;21.52;49.12;98394.69;3592461;40;20386;-71
2021/07/30 08:07:07;;;;;;;4.32;3.00;;;;;;;21.58;48.82;98400.03;3593328;40;20044;-70
2021/07/30 08:09:35;;;;;;;3.22;2.28;;;;;;;21.63;48.28;98391.94;3592761;40;20048;-71
2021/07/30 08:12:04;;;;;;;4.43;2.47;;;;;;;21.67;48.48;98398.38;3592000;40;20029;-71
2021/07/30 08:14:33;;;;;;;4.38;3.13;;;;;;;21.67;48.54;98393.81;3592516;40;20029;-69
2021/07/30 08:17:01;;;;;;;6.00;3.28;;;;;;;21.75;48.30;98393.25;3593733;40;20048;-71
2021/07/30 08:19:32;;;;;;;4.35;2.90;;;;;;;21.83;47.51;98389.19;3594697;40;20048;-71
2021/07/30 08:22:00;;;;;;;4.22;2.83;;;;;;;21.97;47.47;98392.09;3592011;40;20044;-70
2021/07/30 08:24:28;;;;;;;4.60;3.00;;;;;;;22.01;47.42;98393.16;3591890;40;20055;-71
2021/07/30 08:26:56;;;;;;;5.88;2.95;;;;;;;22.04;47.19;98386.38;3591440;40;20057;-70
2021/07/30 08:29:24;;;;;;;4.57;3.38;;;;;;;22.13;47.15;98387.47;3590223;40;20422;-71
2021/07/30 08:31:54;;;;;;;4.30;2.60;;;;;;;22.18;46.51;98393.63;3591199;40;20095;-71
2021/07/30 08:34:24;;;;;;;4.75;2.83;;;;;;;22.21;46.50;98379.59;3590617;40;20398;-72
2021/07/30 08:36:51;;;;;;;4.93;2.80;;;;;;;22.31;46.85;98383.31;3591010;40;20597;-71
2021/07/30 08:39:19;;;;;;;4.28;2.80;;;;;;;22.38;46.39;98378.44;3591768;40;20416;-70
2021/07/30 08:41:50;;;;;;;4.75;3.17;;;;;;;22.44;46.18;98380.78;3592112;40;20051;-70
2021/07/30 08:44:18;;;;;;;6.55;3.92;;;;;;;22.52;45.93;98381.28;3592379;40;20567;-71
2021/07/30 08:46:46;;;;;;;3.20;2.90;;;;;;;22.48;46.14;98376.44;3591322;40;20072;-70
2021/07/30 08:49:16;;;;;;;3.47;2.63;;;;;;;22.61;45.93;98375.00;3590932;40;20044;-69
2021/07/30 08:51:48;;;;;;;2.78;2.50;;;;;;;22.77;45.64;98385.66;3592013;40;20513;-71
2021/07/30 08:54:15;;;;;;;4.07;3.33;;;;;;;22.83;45.84;98388.03;3591502;40;20081;-70
2021/07/30 08:56:43;;;;;;;5.15;4.63;;;;;;;23.02;45.54;98381.97;3590972;40;20048;-70
2021/07/30 08:59:11;;;;;;;7.15;4.13;;;;;;;23.16;44.89;98388.31;3591299;40;20054;-71
2021/07/30 09:01:39;;;;;;;3.63;3.08;;;;;;;23.19;44.54;98383.16;3590918;40;20349;-70
2021/07/30 09:04:07;;;;;;;3.53;3.00;;;;;;;23.16;44.04;98389.13;3591521;40;20045;-70
2021/07/30 09:06:36;;;;;;;5.82;2.45;;;;;;;23.20;43.88;98383.97;3591607;40;20048;-71
2021/07/30 09:09:07;;;;;;;3.78;2.67;;;;;;;23.21;43.81;98382.88;3591721;40;20072;-71
2021/07/30 09:11:36;;;;;;;3.03;2.33;;;;;;;23.38;43.28;98377.81;3590963;40;20086;-72
2021/07/30 09:14:06;;;;;;;2.90;2.55;;;;;;;23.42;43.32;98383.47;3591529;40;20053;-71
2021/07/30 09:16:47;;;;;;;3.17;2.40;;;;;;;23.43;42.95;98383.19;3591145;40;20439;-72
2021/07/30 09:19:16;;;;;;;4.10;2.70;;;;;;;23.55;42.77;98371.16;3592513;40;20056;-71
2021/07/30 09:21:45;;;;;;;6.65;4.28;;;;;;;23.77;42.69;98376.09;3590978;40;20060;-71
2021/07/30 09:24:15;;;;;;;3.92;3.00;;;;;;;23.80;42.61;98364.69;3591543;40;20337;-71
2021/07/30 09:26:46;;;;;;;4.80;2.75;;;;;;;23.76;42.50;98366.34;3591364;40;20055;-71
2021/07/30 09:29:16;;;;;;;3.30;3.00;;;;;;;23.63;42.51;98368.63;3591495;40;20052;-73
2021/07/30 09:31:47;;;;;;;3.55;2.97;;;;;;;23.62;42.34;98367.03;3591869;40;20341;-73
2021/07/30 09:34:17;;;;;;;4.43;3.08;;;;;;;23.62;42.06;98369.72;3590786;40;20044;-72
2021/07/30 09:36:49;;;;;;;3.33;3.03;;;;;;;23.47;42.31;98356.41;3590997;40;20305;-73
2021/07/30 09:39:18;;;;;;;3.35;2.85;;;;;;;23.35;42.46;98356.84;3590637;40;20037;-72
2021/07/30 09:42:04;;;;;;;6.32;2.90;;;;;;;23.30;42.57;98354.19;3591421;40;20329;-73
2021/07/30 09:44:34;;;;;;;5.28;2.92;;;;;;;23.22;42.97;98350.22;3591838;40;20045;-73
2021/07/30 09:47:11;;;;;;;3.00;2.70;;;;;;;23.53;43.07;98349.09;3591397;40;20032;-73
2021/07/30 09:49:51;;;;;;;2.90;2.60;;;;;;;23.79;42.28;98341.50;3590924;40;20060;-73
2021/07/30 09:52:22;;;;;;;3.20;2.90;;;;;;;23.86;42.12;98336.56;3591348;40;20111;-73
2021/07/30 09:54:52;;;;;;;3.03;2.60;;;;;;;23.81;42.37;98334.72;3591736;40;20309;-73
2021/07/30 09:57:22;;;;;;;3.08;2.75;;;;;;;23.89;42.37;98327.88;3590936;40;20149;-73
2021/07/30 09:59:51;;;;;;;4.82;2.85;;;;;;;23.96;42.35;98314.81;3590286;40;20029;-72
2021/07/30 10:02:20;;;;;;;3.85;2.85;;;;;;;24.06;42.09;98319.28;3590422;40;20051;-73
2021/07/30 10:04:51;;;;;;;2.90;2.60;;;;;;;24.15;42.13;98310.22;3590907;40;20057;-73
2021/07/30 10:07:22;;;;;;;3.85;2.85;;;;;;;24.33;41.70;98311.31;3591968;40;20417;-72
2021/07/30 10:10:02;;;;;;;7.47;3.03;;;;;;;24.32;41.41;98306.19;3590927;40;20110;-72
2021/07/30 10:12:31;;;;;;;6.10;3.95;;;;;;;24.37;41.09;98304.22;3592001;40;20048;-72
2021/07/30 10:15:01;;;;;;;2.95;2.75;;;;;;;24.57;40.73;98305.78;3591586;40;20375;-72
2021/07/30 10:17:31;;;;;;;5.40;2.67;;;;;;;24.68;40.39;98296.41;3591240;40;20048;-71
2021/07/30 10:20:01;;;;;;;6.10;3.10;;;;;;;24.72;39.83;98304.72;3590880;40;20044;-73
2021/07/30 10:22:39;;;;;;;5.07;2.90;;;;;;;24.64;39.76;98310.81;3591080;40;20059;-73
2021/07/30 10:25:10;;;;;;;4.15;2.78;;;;;;;24.68;39.48;98309.94;3590248;40;20036;-73
2021/07/30 10:27:42;;;;;;;4.53;3.30;;;;;;;24.79;39.32;98298.94;3590039;40;20029;-72
2021/07/30 10:30:12;;;;;;;4.07;2.60;;;;;;;24.84;39.17;98296.16;3589812;40;20025;-72
2021/07/30 10:32:48;;;;;;;3.22;2.65;;;;;;;24.88;39.19;98302.56;3591234;40;20052;-72
2021/07/30 10:35:17;;;;;;;2.72;2.30;;;;;;;24.92;39.12;98298.97;3590156;40;20028;-72
2021/07/30 10:37:47;;;;;;;5.57;3.35;;;;;;;24.99;39.45;98297.78;3589784;40;20029;-71
2021/07/30 10:40:20;;;;;;;4.72;3.15;;;;;;;24.77;39.32;98312.75;3590685;40;20498;-70
2021/07/30 10:43:06;;;;;;;3.55;3.25;;;;;;;24.91;39.51;98297.38;3590051;40;20405;-71
2021/07/30 10:45:35;;;;;;;3.53;3.22;;;;;;;25.00;39.53;98291.25;3589713;40;20070;-71
2021/07/30 10:48:30;;;;;;;2.95;2.65;;;;;;;25.00;39.68;98296.66;3589503;40;20056;-71
2021/07/30 10:51:01;;;;;;;2.92;2.72;;;;;;;24.93;39.50;98288.94;3590752;40;20048;-72
2021/07/30 10:53:50;;;;;;;4.03;2.58;;;;;;;24.95;39.00;98287.56;3590092;40;20053;-71
2021/07/30 10:56:42;;;;;;;3.15;2.85;;;;;;;24.92;39.18;98290.06;3589511;40;20045;-71
2021/07/30 10:59:10;;;;;;;4.50;3.00;;;;;;;24.93;39.51;98288.94;3585675;40;20055;-71
2021/07/30 11:02:00;;;;;;;3.50;3.00;;;;;;;25.09;38.99;98293.00;3590623;40;20029;-71
2021/07/30 11:04:30;;;;;;;4.03;3.05;;;;;;;25.11;38.73;98282.69;3590484;40;20138;-71
2021/07/30 11:06:59;;;;;;;2.70;2.50;;;;;;;25.12;38.58;98275.38;3590457;40;20052;-72
2021/07/30 11:09:39;;;;;;;3.17;2.88;;;;;;;25.28;38.45;98276.69;3590337;40;20045;-72
2021/07/30 11:12:14;;;;;;;3.30;2.92;;;;;;;25.16;38.19;98282.59;3589290;40;20325;-72
2021/07/30 11:14:45;;;;;;;3.20;2.92;;;;;;;25.13;37.78;98290.50;3590334;40;20037;-71
2021/07/30 11:17:14;;;;;;;4.45;2.88;;;;;;;25.13;37.51;98283.19;3590567;40;20399;-71
2021/07/30 11:19:45;;;;;;;2.92;2.70;;;;;;;25.25;37.16;98281.88;3590010;40;20044;-72
2021/07/30 11:22:14;;;;;;;4.05;3.03;;;;;;;25.34;37.07;98274.66;3589462;40;20051;-72
2021/07/30 11:24:44;;;;;;;3.80;2.88;;;;;;;25.52;37.23;98271.03;3589835;40;20048;-71
2021/07/30 11:27:15;;;;;;;3.70;3.15;;;;;;;25.51;37.04;98272.13;3590609;40;20325;-72
2021/07/30 11:29:45;;;;;;;5.22;3.03;;;;;;;25.56;36.91;98269.34;3589871;40;20056;-72
2021/07/30 11:32:15;;;;;;;3.05;2.75;;;;;;;25.57;37.31;98251.97;3589231;40;20053;-71
2021/07/30 11:34:46;;;;;;;3.88;2.97;;;;;;;25.68;37.10;98250.66;3589808;40;20103;-71
2021/07/30 11:37:17;;;;;;;3.72;2.85;;;;;;;25.56;37.17;98253.09;3589436;40;20060;-72
2021/07/30 11:39:49;;;;;;;3.67;2.97;;;;;;;25.65;37.00;98242.34;3589724;40;20416;-73
2021/07/30 11:42:24;;;;;;;4.18;3.15;;;;;;;25.73;36.76;98247.03;3590060;40;20049;-72
2021/07/30 11:44:55;;;;;;;4.78;3.08;;;;;;;25.68;36.98;98234.41;3588929;40;20126;-72